sensor_id;sensor_type;location;lat;lon;timestamp;P1;durP1;ratioP1;P2;durP2;ratioP2
59306;SDS011;47983;53.016;-2.260;2024-01-07T00:02:05;50.40;;;19.08;;
59306;SDS011;47983;53.016;-2.260;2024-01-07T00:04:32;55.28;;;20.10;;
59306;SDS011;47983;53.016;-2.260;2024-01-07T00:07:01;49.35;;;20.33;;
59306;SDS011;47983;53.016;-2.260;2024-01-07T00:09:29;53.60;;;19.42;;
59306;SDS011;47983;53.016;-2.260;2024-01-07T00:11:57;46.85;;;20.40;;
59306;SDS011;47983;53.016;-2.260;2024-01-07T00:14:24;50.25;;;20.80;;
59306;SDS011;47983;53.016;-2.260;2024-01-07T00:16:52;52.33;;;22.50;;
59306;SDS011;47983;53.016;-2.260;2024-01-07T00:19:20;44.00;;;19.73;;
59306;SDS011;47983;53.016;-2.260;2024-01-07T00:21:48;51.40;;;21.02;;
59306;SDS011;47983;53.016;-2.260;2024-01-07T00:24:17;50.63;;;20.47;;
59306;SDS011;47983;53.016;-2.260;2024-01-07T00:26:44;49.75;;;18.42;;
59306;SDS011;47983;53.016;-2.260;2024-01-07T00:29:12;42.85;;;17.13;;
59306;SDS011;47983;53.016;-2.260;2024-01-07T00:31:40;45.78;;;18.40;;
59306;SDS011;47983;53.016;-2.260;2024-01-07T00:34:07;58.90;;;19.13;;
59306;SDS011;47983;53.016;-2.260;2024-01-07T00:36:35;45.40;;;18.38;;
59306;SDS011;47983;53.016;-2.260;2024-01-07T00:39:03;44.95;;;18.10;;
59306;SDS011;47983;53.016;-2.260;2024-01-07T00:41:31;45.63;;;17.90;;
59306;SDS011;47983;53.016;-2.260;2024-01-07T00:43:58;46.55;;;17.48;;
59306;SDS011;47983;53.016;-2.260;2024-01-07T00:46:26;42.97;;;15.82;;
59306;SDS011;47983;53.016;-2.260;2024-01-07T00:48:54;44.80;;;16.25;;
59306;SDS011;47983;53.016;-2.260;2024-01-07T00:51:21;43.95;;;16.67;;
59306;SDS011;47983;53.016;-2.260;2024-01-07T00:53:49;46.65;;;17.40;;
59306;SDS011;47983;53.016;-2.260;2024-01-07T00:56:17;45.75;;;18.15;;
59306;SDS011;47983;53.016;-2.260;2024-01-07T00:58:44;47.70;;;19.15;;
59306;SDS011;47983;53.016;-2.260;2024-01-07T01:01:12;58.97;;;19.55;;
59306;SDS011;47983;53.016;-2.260;2024-01-07T01:03:40;49.40;;;18.17;;
59306;SDS011;47983;53.016;-2.260;2024-01-07T01:06:08;47.20;;;18.48;;
59306;SDS011;47983;53.016;-2.260;2024-01-07T01:08:36;53.70;;;18.92;;
59306;SDS011;47983;53.016;-2.260;2024-01-07T01:11:03;47.38;;;19.73;;
59306;SDS011;47983;53.016;-2.260;2024-01-07T01:13:31;43.42;;;18.05;;
59306;SDS011;47983;53.016;-2.260;2024-01-07T01:15:59;43.03;;;18.08;;
59306;SDS011;47983;53.016;-2.260;2024-01-07T01:18:26;44.78;;;17.38;;
59306;SDS011;47983;53.016;-2.260;2024-01-07T01:20:55;42.72;;;16.80;;
59306;SDS011;47983;53.016;-2.260;2024-01-07T01:23:23;47.35;;;18.23;;
59306;SDS011;47983;53.016;-2.260;2024-01-07T01:25:50;50.15;;;19.38;;
59306;SDS011;47983;53.016;-2.260;2024-01-07T01:28:18;44.90;;;18.27;;
59306;SDS011;47983;53.016;-2.260;2024-01-07T01:30:46;45.72;;;17.17;;
59306;SDS011;47983;53.016;-2.260;2024-01-07T01:33:14;43.05;;;16.70;;
59306;SDS011;47983;53.016;-2.260;2024-01-07T01:35:42;40.55;;;17.50;;
59306;SDS011;47983;53.016;-2.260;2024-01-07T01:38:10;46.90;;;18.17;;
59306;SDS011;47983;53.016;-2.260;2024-01-07T01:40:38;41.85;;;16.75;;
59306;SDS011;47983;53.016;-2.260;2024-01-07T01:43:06;37.97;;;16.08;;
59306;SDS011;47983;53.016;-2.260;2024-01-07T01:45:34;46.50;;;17.00;;
59306;SDS011;47983;53.016;-2.260;2024-01-07T01:48:01;51.53;;;17.50;;
59306;SDS011;47983;53.016;-2.260;2024-01-07T01:50:29;38.85;;;15.68;;
59306;SDS011;47983;53.016;-2.260;2024-01-07T01:52:57;39.47;;;15.82;;
59306;SDS011;47983;53.016;-2.260;2024-01-07T01:55:24;47.47;;;15.48;;
59306;SDS011;47983;53.016;-2.260;2024-01-07T01:57:52;40.33;;;15.23;;
59306;SDS011;47983;53.016;-2.260;2024-01-07T02:00:21;34.22;;;15.02;;
59306;SDS011;47983;53.016;-2.260;2024-01-07T02:02:49;43.63;;;15.10;;
59306;SDS011;47983;53.016;-2.260;2024-01-07T02:07:47;37.63;;;14.63;;
59306;SDS011;47983;53.016;-2.260;2024-01-07T02:10:15;48.38;;;15.85;;
59306;SDS011;47983;53.016;-2.260;2024-01-07T02:12:43;45.72;;;15.38;;
59306;SDS011;47983;53.016;-2.260;2024-01-07T02:15:11;38.58;;;16.42;;
59306;SDS011;47983;53.016;-2.260;2024-01-07T02:17:38;38.40;;;14.82;;
59306;SDS011;47983;53.016;-2.260;2024-01-07T02:20:07;39.35;;;15.60;;
59306;SDS011;47983;53.016;-2.260;2024-01-07T02:22:35;37.00;;;15.38;;
59306;SDS011;47983;53.016;-2.260;2024-01-07T02:25:03;45.22;;;15.80;;
59306;SDS011;47983;53.016;-2.260;2024-01-07T02:27:32;38.00;;;16.27;;
59306;SDS011;47983;53.016;-2.260;2024-01-07T02:29:59;37.80;;;14.57;;
59306;SDS011;47983;53.016;-2.260;2024-01-07T02:32:29;40.10;;;15.20;;
59306;SDS011;47983;53.016;-2.260;2024-01-07T02:35:00;41.65;;;15.27;;
59306;SDS011;47983;53.016;-2.260;2024-01-07T02:37:27;40.42;;;15.40;;
59306;SDS011;47983;53.016;-2.260;2024-01-07T02:39:55;44.00;;;13.75;;
59306;SDS011;47983;53.016;-2.260;2024-01-07T02:42:28;36.30;;;14.98;;
59306;SDS011;47983;53.016;-2.260;2024-01-07T02:44:56;40.40;;;15.63;;
59306;SDS011;47983;53.016;-2.260;2024-01-07T02:47:24;40.83;;;14.68;;
59306;SDS011;47983;53.016;-2.260;2024-01-07T02:49:51;32.90;;;14.77;;
59306;SDS011;47983;53.016;-2.260;2024-01-07T02:52:19;40.00;;;14.63;;
59306;SDS011;47983;53.016;-2.260;2024-01-07T02:54:47;41.17;;;14.50;;
59306;SDS011;47983;53.016;-2.260;2024-01-07T02:57:14;38.33;;;14.20;;
59306;SDS011;47983;53.016;-2.260;2024-01-07T02:59:42;44.38;;;14.73;;
59306;SDS011;47983;53.016;-2.260;2024-01-07T03:02:09;38.72;;;15.63;;
59306;SDS011;47983;53.016;-2.260;2024-01-07T03:04:37;42.55;;;14.88;;
59306;SDS011;47983;53.016;-2.260;2024-01-07T03:07:04;29.70;;;13.55;;
59306;SDS011;47983;53.016;-2.260;2024-01-07T03:09:32;40.17;;;14.15;;
59306;SDS011;47983;53.016;-2.260;2024-01-07T03:12:00;33.58;;;14.70;;
59306;SDS011;47983;53.016;-2.260;2024-01-07T03:14:27;42.83;;;14.25;;
59306;SDS011;47983;53.016;-2.260;2024-01-07T03:16:55;38.03;;;14.05;;
59306;SDS011;47983;53.016;-2.260;2024-01-07T03:19:23;47.45;;;15.18;;
59306;SDS011;47983;53.016;-2.260;2024-01-07T03:21:51;36.25;;;14.75;;
59306;SDS011;47983;53.016;-2.260;2024-01-07T03:24:19;42.90;;;15.80;;
59306;SDS011;47983;53.016;-2.260;2024-01-07T03:26:47;40.50;;;16.42;;
59306;SDS011;47983;53.016;-2.260;2024-01-07T03:29:14;56.33;;;17.10;;
59306;SDS011;47983;53.016;-2.260;2024-01-07T03:31:42;45.88;;;17.08;;
59306;SDS011;47983;53.016;-2.260;2024-01-07T03:34:10;41.58;;;16.48;;
59306;SDS011;47983;53.016;-2.260;2024-01-07T03:36:37;52.85;;;17.50;;
59306;SDS011;47983;53.016;-2.260;2024-01-07T03:39:05;41.15;;;16.88;;
59306;SDS011;47983;53.016;-2.260;2024-01-07T03:41:33;50.33;;;15.88;;
59306;SDS011;47983;53.016;-2.260;2024-01-07T03:44:01;54.63;;;18.58;;
59306;SDS011;47983;53.016;-2.260;2024-01-07T03:46:29;37.40;;;16.50;;
59306;SDS011;47983;53.016;-2.260;2024-01-07T03:48:56;46.85;;;16.83;;
59306;SDS011;47983;53.016;-2.260;2024-01-07T03:51:24;40.53;;;16.48;;
59306;SDS011;47983;53.016;-2.260;2024-01-07T03:53:52;44.08;;;16.42;;
59306;SDS011;47983;53.016;-2.260;2024-01-07T03:56:19;45.90;;;17.75;;
59306;SDS011;47983;53.016;-2.260;2024-01-07T03:58:47;45.35;;;15.75;;
59306;SDS011;47983;53.016;-2.260;2024-01-07T04:01:18;42.17;;;16.58;;
59306;SDS011;47983;53.016;-2.260;2024-01-07T04:03:46;58.78;;;17.13;;
59306;SDS011;47983;53.016;-2.260;2024-01-07T04:06:13;40.80;;;16.52;;
59306;SDS011;47983;53.016;-2.260;2024-01-07T04:08:41;46.28;;;15.80;;
59306;SDS011;47983;53.016;-2.260;2024-01-07T04:11:09;39.67;;;15.90;;
59306;SDS011;47983;53.016;-2.260;2024-01-07T04:13:36;50.42;;;16.25;;
59306;SDS011;47983;53.016;-2.260;2024-01-07T04:16:04;39.78;;;15.40;;
59306;SDS011;47983;53.016;-2.260;2024-01-07T04:18:32;38.92;;;14.30;;
59306;SDS011;47983;53.016;-2.260;2024-01-07T04:21:00;44.20;;;15.98;;
59306;SDS011;47983;53.016;-2.260;2024-01-07T04:23:28;42.22;;;14.85;;
59306;SDS011;47983;53.016;-2.260;2024-01-07T04:25:55;34.40;;;14.20;;
59306;SDS011;47983;53.016;-2.260;2024-01-07T04:28:23;32.80;;;11.48;;
59306;SDS011;47983;53.016;-2.260;2024-01-07T04:30:50;32.33;;;11.52;;
59306;SDS011;47983;53.016;-2.260;2024-01-07T04:35:48;33.17;;;10.60;;
59306;SDS011;47983;53.016;-2.260;2024-01-07T04:38:15;35.33;;;10.23;;
59306;SDS011;47983;53.016;-2.260;2024-01-07T04:40:43;39.47;;;10.93;;
59306;SDS011;47983;53.016;-2.260;2024-01-07T04:43:11;30.42;;;11.05;;
59306;SDS011;47983;53.016;-2.260;2024-01-07T04:45:38;30.10;;;11.20;;
59306;SDS011;47983;53.016;-2.260;2024-01-07T04:48:06;36.05;;;11.68;;
59306;SDS011;47983;53.016;-2.260;2024-01-07T04:50:34;36.13;;;11.45;;
59306;SDS011;47983;53.016;-2.260;2024-01-07T04:53:02;32.38;;;12.52;;
59306;SDS011;47983;53.016;-2.260;2024-01-07T04:55:29;38.00;;;12.93;;
59306;SDS011;47983;53.016;-2.260;2024-01-07T04:57:57;34.47;;;11.52;;
59306;SDS011;47983;53.016;-2.260;2024-01-07T05:00:25;35.45;;;12.50;;
59306;SDS011;47983;53.016;-2.260;2024-01-07T05:02:52;35.42;;;11.98;;
59306;SDS011;47983;53.016;-2.260;2024-01-07T05:05:20;33.42;;;11.32;;
59306;SDS011;47983;53.016;-2.260;2024-01-07T05:07:48;35.47;;;12.13;;
59306;SDS011;47983;53.016;-2.260;2024-01-07T05:10:15;33.88;;;11.48;;
59306;SDS011;47983;53.016;-2.260;2024-01-07T05:12:43;26.33;;;10.55;;
59306;SDS011;47983;53.016;-2.260;2024-01-07T05:15:11;34.90;;;11.95;;
59306;SDS011;47983;53.016;-2.260;2024-01-07T05:17:39;30.00;;;10.55;;
59306;SDS011;47983;53.016;-2.260;2024-01-07T05:20:06;36.63;;;12.43;;
59306;SDS011;47983;53.016;-2.260;2024-01-07T05:22:36;33.13;;;11.70;;
59306;SDS011;47983;53.016;-2.260;2024-01-07T05:25:03;28.25;;;11.90;;
59306;SDS011;47983;53.016;-2.260;2024-01-07T05:27:32;37.95;;;12.23;;
59306;SDS011;47983;53.016;-2.260;2024-01-07T05:29:59;31.25;;;11.25;;
59306;SDS011;47983;53.016;-2.260;2024-01-07T05:32:27;35.45;;;12.00;;
59306;SDS011;47983;53.016;-2.260;2024-01-07T05:34:55;34.33;;;12.18;;
59306;SDS011;47983;53.016;-2.260;2024-01-07T05:37:22;32.28;;;11.93;;
59306;SDS011;47983;53.016;-2.260;2024-01-07T05:39:50;35.45;;;13.32;;
59306;SDS011;47983;53.016;-2.260;2024-01-07T05:42:18;38.95;;;13.88;;
59306;SDS011;47983;53.016;-2.260;2024-01-07T05:44:46;34.05;;;12.38;;
59306;SDS011;47983;53.016;-2.260;2024-01-07T05:47:13;32.72;;;12.77;;
59306;SDS011;47983;53.016;-2.260;2024-01-07T05:49:41;38.55;;;13.82;;
59306;SDS011;47983;53.016;-2.260;2024-01-07T05:52:09;37.20;;;13.60;;
59306;SDS011;47983;53.016;-2.260;2024-01-07T05:54:36;32.55;;;13.52;;
59306;SDS011;47983;53.016;-2.260;2024-01-07T05:57:04;31.42;;;13.25;;
59306;SDS011;47983;53.016;-2.260;2024-01-07T05:59:32;31.90;;;13.38;;
59306;SDS011;47983;53.016;-2.260;2024-01-07T06:02:00;33.60;;;12.52;;
59306;SDS011;47983;53.016;-2.260;2024-01-07T06:04:27;31.77;;;12.23;;
59306;SDS011;47983;53.016;-2.260;2024-01-07T06:06:55;26.23;;;12.70;;
59306;SDS011;47983;53.016;-2.260;2024-01-07T06:09:23;38.10;;;13.25;;
59306;SDS011;47983;53.016;-2.260;2024-01-07T06:11:52;28.17;;;11.85;;
59306;SDS011;47983;53.016;-2.260;2024-01-07T06:14:20;28.15;;;10.82;;
59306;SDS011;47983;53.016;-2.260;2024-01-07T06:16:48;24.50;;;10.90;;
59306;SDS011;47983;53.016;-2.260;2024-01-07T06:19:19;27.77;;;11.43;;
59306;SDS011;47983;53.016;-2.260;2024-01-07T06:21:48;34.03;;;11.70;;
59306;SDS011;47983;53.016;-2.260;2024-01-07T06:24:15;27.90;;;12.13;;
59306;SDS011;47983;53.016;-2.260;2024-01-07T06:26:43;29.35;;;11.23;;
59306;SDS011;47983;53.016;-2.260;2024-01-07T06:29:11;35.05;;;12.60;;
59306;SDS011;47983;53.016;-2.260;2024-01-07T06:31:44;33.33;;;13.90;;
59306;SDS011;47983;53.016;-2.260;2024-01-07T06:34:12;33.50;;;11.82;;
59306;SDS011;47983;53.016;-2.260;2024-01-07T06:36:41;35.00;;;12.93;;
59306;SDS011;47983;53.016;-2.260;2024-01-07T06:39:09;31.38;;;11.68;;
59306;SDS011;47983;53.016;-2.260;2024-01-07T06:41:37;42.28;;;14.15;;
59306;SDS011;47983;53.016;-2.260;2024-01-07T06:44:05;35.58;;;12.85;;
59306;SDS011;47983;53.016;-2.260;2024-01-07T06:46:33;44.55;;;13.25;;
59306;SDS011;47983;53.016;-2.260;2024-01-07T06:49:01;39.90;;;14.02;;
59306;SDS011;47983;53.016;-2.260;2024-01-07T06:51:29;37.50;;;12.88;;
59306;SDS011;47983;53.016;-2.260;2024-01-07T06:53:57;31.90;;;11.75;;
59306;SDS011;47983;53.016;-2.260;2024-01-07T06:56:25;38.17;;;11.95;;
59306;SDS011;47983;53.016;-2.260;2024-01-07T06:58:55;43.50;;;13.52;;
59306;SDS011;47983;53.016;-2.260;2024-01-07T07:01:23;36.65;;;13.65;;
59306;SDS011;47983;53.016;-2.260;2024-01-07T07:03:50;40.08;;;15.05;;
59306;SDS011;47983;53.016;-2.260;2024-01-07T07:06:18;41.10;;;13.52;;
59306;SDS011;47983;53.016;-2.260;2024-01-07T07:08:46;49.17;;;15.93;;
59306;SDS011;47983;53.016;-2.260;2024-01-07T07:11:14;39.03;;;14.68;;
59306;SDS011;47983;53.016;-2.260;2024-01-07T07:13:42;42.42;;;15.52;;
59306;SDS011;47983;53.016;-2.260;2024-01-07T07:16:10;43.08;;;15.35;;
59306;SDS011;47983;53.016;-2.260;2024-01-07T07:18:39;43.95;;;16.08;;
59306;SDS011;47983;53.016;-2.260;2024-01-07T07:21:07;51.13;;;16.27;;
59306;SDS011;47983;53.016;-2.260;2024-01-07T07:23:35;42.47;;;14.40;;
59306;SDS011;47983;53.016;-2.260;2024-01-07T07:26:03;43.80;;;16.05;;
59306;SDS011;47983;53.016;-2.260;2024-01-07T07:28:30;57.85;;;16.20;;
59306;SDS011;47983;53.016;-2.260;2024-01-07T07:30:58;48.50;;;14.52;;
59306;SDS011;47983;53.016;-2.260;2024-01-07T07:33:26;39.85;;;14.70;;
59306;SDS011;47983;53.016;-2.260;2024-01-07T07:35:53;47.13;;;14.85;;
59306;SDS011;47983;53.016;-2.260;2024-01-07T07:38:21;48.95;;;15.85;;
59306;SDS011;47983;53.016;-2.260;2024-01-07T07:40:49;46.08;;;15.63;;
59306;SDS011;47983;53.016;-2.260;2024-01-07T07:43:20;45.03;;;15.65;;
59306;SDS011;47983;53.016;-2.260;2024-01-07T07:45:48;40.95;;;15.35;;
59306;SDS011;47983;53.016;-2.260;2024-01-07T07:48:15;52.40;;;17.05;;
59306;SDS011;47983;53.016;-2.260;2024-01-07T07:50:44;48.67;;;16.10;;
59306;SDS011;47983;53.016;-2.260;2024-01-07T07:53:11;51.60;;;16.65;;
59306;SDS011;47983;53.016;-2.260;2024-01-07T07:55:39;54.28;;;16.85;;
59306;SDS011;47983;53.016;-2.260;2024-01-07T07:58:07;51.97;;;15.80;;
59306;SDS011;47983;53.016;-2.260;2024-01-07T08:00:35;46.70;;;15.43;;
59306;SDS011;47983;53.016;-2.260;2024-01-07T08:03:03;53.78;;;16.17;;
59306;SDS011;47983;53.016;-2.260;2024-01-07T08:05:31;45.75;;;15.65;;
59306;SDS011;47983;53.016;-2.260;2024-01-07T08:07:59;57.80;;;17.27;;
59306;SDS011;47983;53.016;-2.260;2024-01-07T08:10:27;62.05;;;18.27;;
59306;SDS011;47983;53.016;-2.260;2024-01-07T08:12:55;43.17;;;15.77;;
59306;SDS011;47983;53.016;-2.260;2024-01-07T08:15:23;48.78;;;15.13;;
59306;SDS011;47983;53.016;-2.260;2024-01-07T08:20:20;45.90;;;16.05;;
59306;SDS011;47983;53.016;-2.260;2024-01-07T08:22:48;51.97;;;15.68;;
59306;SDS011;47983;53.016;-2.260;2024-01-07T08:25:16;55.45;;;17.02;;
59306;SDS011;47983;53.016;-2.260;2024-01-07T08:27:44;48.63;;;16.92;;
59306;SDS011;47983;53.016;-2.260;2024-01-07T08:30:12;54.83;;;17.83;;
59306;SDS011;47983;53.016;-2.260;2024-01-07T08:32:41;56.45;;;16.90;;
59306;SDS011;47983;53.016;-2.260;2024-01-07T08:35:09;55.45;;;17.92;;
59306;SDS011;47983;53.016;-2.260;2024-01-07T08:37:36;62.63;;;18.30;;
59306;SDS011;47983;53.016;-2.260;2024-01-07T08:40:04;59.35;;;19.35;;
59306;SDS011;47983;53.016;-2.260;2024-01-07T08:42:35;56.47;;;16.88;;
59306;SDS011;47983;53.016;-2.260;2024-01-07T08:45:03;51.10;;;17.42;;
59306;SDS011;47983;53.016;-2.260;2024-01-07T08:47:33;47.78;;;15.27;;
59306;SDS011;47983;53.016;-2.260;2024-01-07T08:50:08;58.25;;;16.88;;
59306;SDS011;47983;53.016;-2.260;2024-01-07T08:52:36;62.22;;;17.92;;
59306;SDS011;47983;53.016;-2.260;2024-01-07T08:55:04;53.30;;;17.58;;
59306;SDS011;47983;53.016;-2.260;2024-01-07T09:00:02;52.42;;;16.63;;
59306;SDS011;47983;53.016;-2.260;2024-01-07T09:02:31;58.13;;;17.30;;
59306;SDS011;47983;53.016;-2.260;2024-01-07T09:04:59;51.20;;;17.45;;
59306;SDS011;47983;53.016;-2.260;2024-01-07T09:07:27;53.67;;;17.00;;
59306;SDS011;47983;53.016;-2.260;2024-01-07T09:09:54;52.40;;;17.23;;
59306;SDS011;47983;53.016;-2.260;2024-01-07T09:12:29;56.55;;;18.38;;
59306;SDS011;47983;53.016;-2.260;2024-01-07T09:14:57;54.65;;;17.35;;
59306;SDS011;47983;53.016;-2.260;2024-01-07T09:17:25;56.85;;;18.27;;
59306;SDS011;47983;53.016;-2.260;2024-01-07T09:19:52;52.63;;;16.58;;
59306;SDS011;47983;53.016;-2.260;2024-01-07T09:22:20;53.80;;;17.13;;
59306;SDS011;47983;53.016;-2.260;2024-01-07T09:24:48;57.40;;;16.65;;
59306;SDS011;47983;53.016;-2.260;2024-01-07T09:27:19;52.30;;;16.13;;
59306;SDS011;47983;53.016;-2.260;2024-01-07T09:29:46;50.92;;;17.73;;
59306;SDS011;47983;53.016;-2.260;2024-01-07T09:32:14;45.95;;;16.60;;
59306;SDS011;47983;53.016;-2.260;2024-01-07T09:34:42;52.83;;;17.00;;
59306;SDS011;47983;53.016;-2.260;2024-01-07T09:37:10;52.00;;;17.23;;
59306;SDS011;47983;53.016;-2.260;2024-01-07T09:39:39;50.35;;;16.67;;
59306;SDS011;47983;53.016;-2.260;2024-01-07T09:42:12;47.67;;;16.25;;
59306;SDS011;47983;53.016;-2.260;2024-01-07T09:44:41;58.05;;;18.23;;
59306;SDS011;47983;53.016;-2.260;2024-01-07T09:47:13;60.55;;;20.58;;
59306;SDS011;47983;53.016;-2.260;2024-01-07T09:49:42;74.70;;;21.90;;
59306;SDS011;47983;53.016;-2.260;2024-01-07T09:52:11;64.53;;;22.58;;
59306;SDS011;47983;53.016;-2.260;2024-01-07T09:54:39;58.00;;;20.63;;
59306;SDS011;47983;53.016;-2.260;2024-01-07T09:57:08;53.00;;;20.05;;
59306;SDS011;47983;53.016;-2.260;2024-01-07T09:59:36;54.17;;;19.20;;
59306;SDS011;47983;53.016;-2.260;2024-01-07T10:02:04;51.00;;;18.83;;
59306;SDS011;47983;53.016;-2.260;2024-01-07T10:04:32;50.17;;;19.02;;
59306;SDS011;47983;53.016;-2.260;2024-01-07T10:07:00;49.42;;;18.70;;
59306;SDS011;47983;53.016;-2.260;2024-01-07T10:09:28;48.13;;;19.20;;
59306;SDS011;47983;53.016;-2.260;2024-01-07T10:14:25;52.58;;;19.15;;
59306;SDS011;47983;53.016;-2.260;2024-01-07T10:19:22;50.50;;;19.23;;
59306;SDS011;47983;53.016;-2.260;2024-01-07T10:22:03;50.90;;;18.13;;
59306;SDS011;47983;53.016;-2.260;2024-01-07T10:24:38;53.05;;;18.73;;
59306;SDS011;47983;53.016;-2.260;2024-01-07T10:27:07;51.03;;;19.25;;
59306;SDS011;47983;53.016;-2.260;2024-01-07T10:29:37;50.13;;;19.65;;
59306;SDS011;47983;53.016;-2.260;2024-01-07T10:32:05;56.10;;;21.10;;
59306;SDS011;47983;53.016;-2.260;2024-01-07T10:34:34;49.42;;;19.67;;
59306;SDS011;47983;53.016;-2.260;2024-01-07T10:37:03;55.05;;;20.42;;
59306;SDS011;47983;53.016;-2.260;2024-01-07T10:39:35;58.83;;;20.40;;
59306;SDS011;47983;53.016;-2.260;2024-01-07T10:42:03;49.05;;;20.75;;
59306;SDS011;47983;53.016;-2.260;2024-01-07T10:44:32;53.35;;;20.75;;
59306;SDS011;47983;53.016;-2.260;2024-01-07T10:47:00;46.83;;;19.10;;
59306;SDS011;47983;53.016;-2.260;2024-01-07T10:49:36;50.20;;;19.17;;
59306;SDS011;47983;53.016;-2.260;2024-01-07T10:52:10;45.67;;;20.02;;
59306;SDS011;47983;53.016;-2.260;2024-01-07T10:54:38;44.17;;;19.73;;
59306;SDS011;47983;53.016;-2.260;2024-01-07T10:57:21;36.22;;;17.70;;
59306;SDS011;47983;53.016;-2.260;2024-01-07T11:00:12;39.60;;;16.13;;
59306;SDS011;47983;53.016;-2.260;2024-01-07T11:05:44;32.08;;;15.25;;
59306;SDS011;47983;53.016;-2.260;2024-01-07T11:11:04;24.77;;;11.30;;
59306;SDS011;47983;53.016;-2.260;2024-01-07T11:13:37;26.17;;;11.88;;
59306;SDS011;47983;53.016;-2.260;2024-01-07T11:16:06;28.42;;;12.20;;
59306;SDS011;47983;53.016;-2.260;2024-01-07T11:19:12;29.30;;;10.77;;
59306;SDS011;47983;53.016;-2.260;2024-01-07T11:21:32;26.13;;;12.57;;
59306;SDS011;47983;53.016;-2.260;2024-01-07T11:24:03;30.67;;;12.68;;
59306;SDS011;47983;53.016;-2.260;2024-01-07T11:26:31;21.58;;;11.07;;
59306;SDS011;47983;53.016;-2.260;2024-01-07T11:28:59;20.63;;;9.35;;
59306;SDS011;47983;53.016;-2.260;2024-01-07T11:31:42;19.40;;;9.00;;
59306;SDS011;47983;53.016;-2.260;2024-01-07T11:34:11;16.98;;;8.50;;
59306;SDS011;47983;53.016;-2.260;2024-01-07T11:37:13;17.45;;;9.48;;
59306;SDS011;47983;53.016;-2.260;2024-01-07T11:39:44;15.80;;;8.27;;
59306;SDS011;47983;53.016;-2.260;2024-01-07T11:42:13;23.20;;;11.70;;
59306;SDS011;47983;53.016;-2.260;2024-01-07T11:44:47;22.75;;;10.30;;
59306;SDS011;47983;53.016;-2.260;2024-01-07T11:47:19;18.60;;;8.02;;
59306;SDS011;47983;53.016;-2.260;2024-01-07T11:49:48;10.05;;;6.00;;
59306;SDS011;47983;53.016;-2.260;2024-01-07T11:52:19;13.40;;;5.43;;
59306;SDS011;47983;53.016;-2.260;2024-01-07T11:54:48;12.65;;;6.13;;
59306;SDS011;47983;53.016;-2.260;2024-01-07T11:57:16;10.13;;;6.05;;
59306;SDS011;47983;53.016;-2.260;2024-01-07T11:59:44;26.33;;;11.45;;
59306;SDS011;47983;53.016;-2.260;2024-01-07T12:02:12;14.95;;;6.18;;
59306;SDS011;47983;53.016;-2.260;2024-01-07T12:04:39;11.93;;;5.32;;
59306;SDS011;47983;53.016;-2.260;2024-01-07T12:07:10;9.38;;;4.25;;
59306;SDS011;47983;53.016;-2.260;2024-01-07T12:09:43;7.47;;;3.97;;
59306;SDS011;47983;53.016;-2.260;2024-01-07T12:12:11;5.57;;;3.72;;
59306;SDS011;47983;53.016;-2.260;2024-01-07T12:14:39;8.10;;;3.67;;
59306;SDS011;47983;53.016;-2.260;2024-01-07T12:17:08;8.70;;;4.03;;
59306;SDS011;47983;53.016;-2.260;2024-01-07T12:19:40;12.25;;;4.63;;
59306;SDS011;47983;53.016;-2.260;2024-01-07T12:22:09;10.98;;;5.10;;
59306;SDS011;47983;53.016;-2.260;2024-01-07T12:24:37;11.65;;;6.15;;
59306;SDS011;47983;53.016;-2.260;2024-01-07T12:27:05;12.35;;;5.65;;
59306;SDS011;47983;53.016;-2.260;2024-01-07T12:29:33;9.85;;;5.93;;
59306;SDS011;47983;53.016;-2.260;2024-01-07T12:32:02;10.85;;;5.97;;
59306;SDS011;47983;53.016;-2.260;2024-01-07T12:34:30;11.98;;;5.80;;
59306;SDS011;47983;53.016;-2.260;2024-01-07T12:36:59;13.85;;;6.80;;
59306;SDS011;47983;53.016;-2.260;2024-01-07T12:39:27;11.75;;;5.70;;
59306;SDS011;47983;53.016;-2.260;2024-01-07T12:41:55;8.40;;;4.88;;
59306;SDS011;47983;53.016;-2.260;2024-01-07T12:44:26;11.23;;;4.90;;
59306;SDS011;47983;53.016;-2.260;2024-01-07T12:46:55;12.98;;;5.30;;
59306;SDS011;47983;53.016;-2.260;2024-01-07T12:49:23;11.55;;;4.97;;
59306;SDS011;47983;53.016;-2.260;2024-01-07T12:51:51;7.80;;;4.40;;
59306;SDS011;47983;53.016;-2.260;2024-01-07T12:54:19;8.48;;;5.22;;
59306;SDS011;47983;53.016;-2.260;2024-01-07T12:56:46;7.28;;;3.95;;
59306;SDS011;47983;53.016;-2.260;2024-01-07T12:59:14;5.63;;;4.15;;
59306;SDS011;47983;53.016;-2.260;2024-01-07T13:01:42;8.13;;;4.28;;
59306;SDS011;47983;53.016;-2.260;2024-01-07T13:04:10;7.05;;;3.95;;
59306;SDS011;47983;53.016;-2.260;2024-01-07T13:06:38;7.28;;;3.80;;
59306;SDS011;47983;53.016;-2.260;2024-01-07T13:09:07;5.33;;;3.27;;
59306;SDS011;47983;53.016;-2.260;2024-01-07T13:11:36;6.35;;;3.35;;
59306;SDS011;47983;53.016;-2.260;2024-01-07T13:14:04;7.88;;;3.80;;
59306;SDS011;47983;53.016;-2.260;2024-01-07T13:16:32;4.55;;;2.83;;
59306;SDS011;47983;53.016;-2.260;2024-01-07T13:19:00;5.97;;;2.88;;
59306;SDS011;47983;53.016;-2.260;2024-01-07T13:21:28;6.32;;;2.80;;
59306;SDS011;47983;53.016;-2.260;2024-01-07T13:23:57;4.50;;;2.70;;
59306;SDS011;47983;53.016;-2.260;2024-01-07T13:26:27;6.13;;;2.70;;
59306;SDS011;47983;53.016;-2.260;2024-01-07T13:28:54;8.57;;;2.95;;
59306;SDS011;47983;53.016;-2.260;2024-01-07T13:31:22;4.97;;;2.50;;
59306;SDS011;47983;53.016;-2.260;2024-01-07T13:33:51;5.63;;;3.13;;
59306;SDS011;47983;53.016;-2.260;2024-01-07T13:36:19;6.47;;;2.90;;
59306;SDS011;47983;53.016;-2.260;2024-01-07T13:38:47;6.15;;;3.05;;
59306;SDS011;47983;53.016;-2.260;2024-01-07T13:41:17;6.55;;;3.53;;
59306;SDS011;47983;53.016;-2.260;2024-01-07T13:43:44;8.98;;;2.97;;
59306;SDS011;47983;53.016;-2.260;2024-01-07T13:46:12;6.57;;;2.67;;
59306;SDS011;47983;53.016;-2.260;2024-01-07T13:48:40;9.95;;;3.88;;
59306;SDS011;47983;53.016;-2.260;2024-01-07T13:51:09;4.40;;;2.60;;
59306;SDS011;47983;53.016;-2.260;2024-01-07T13:53:37;4.63;;;2.90;;
59306;SDS011;47983;53.016;-2.260;2024-01-07T13:56:05;9.85;;;4.30;;
59306;SDS011;47983;53.016;-2.260;2024-01-07T13:58:34;9.73;;;6.22;;
59306;SDS011;47983;53.016;-2.260;2024-01-07T14:01:02;13.75;;;7.90;;
59306;SDS011;47983;53.016;-2.260;2024-01-07T14:03:30;15.60;;;8.32;;
59306;SDS011;47983;53.016;-2.260;2024-01-07T14:05:59;17.42;;;8.07;;
59306;SDS011;47983;53.016;-2.260;2024-01-07T14:08:27;17.67;;;9.60;;
59306;SDS011;47983;53.016;-2.260;2024-01-07T14:10:55;21.65;;;10.13;;
59306;SDS011;47983;53.016;-2.260;2024-01-07T14:13:25;18.00;;;9.85;;
59306;SDS011;47983;53.016;-2.260;2024-01-07T14:15:52;20.92;;;10.20;;
59306;SDS011;47983;53.016;-2.260;2024-01-07T14:18:20;14.50;;;9.10;;
59306;SDS011;47983;53.016;-2.260;2024-01-07T14:20:49;17.10;;;8.88;;
59306;SDS011;47983;53.016;-2.260;2024-01-07T14:23:17;21.05;;;9.00;;
59306;SDS011;47983;53.016;-2.260;2024-01-07T14:25:46;17.90;;;8.65;;
59306;SDS011;47983;53.016;-2.260;2024-01-07T14:28:13;18.15;;;8.20;;
59306;SDS011;47983;53.016;-2.260;2024-01-07T14:30:41;18.05;;;8.73;;
59306;SDS011;47983;53.016;-2.260;2024-01-07T14:33:09;24.88;;;10.55;;
59306;SDS011;47983;53.016;-2.260;2024-01-07T14:35:37;14.30;;;9.10;;
59306;SDS011;47983;53.016;-2.260;2024-01-07T14:38:05;24.75;;;11.48;;
59306;SDS011;47983;53.016;-2.260;2024-01-07T14:40:35;26.73;;;10.82;;
59306;SDS011;47983;53.016;-2.260;2024-01-07T14:43:02;19.33;;;10.05;;